sensor_id;sensor_type;location;lat;lon;timestamp;P1;durP1;ratioP1;P2;durP2;ratioP2
44973;SDS011;60981;50.720;11.342;2023-04-08T00:00:11;10.98;;;5.97;;
44973;SDS011;60981;50.720;11.342;2023-04-08T00:01:13;10.27;;;5.60;;
44973;SDS011;60981;50.720;11.342;2023-04-08T00:02:15;9.60;;;5.43;;
44973;SDS011;60981;50.720;11.342;2023-04-08T00:29:05;8.40;;;4.57;;
44973;SDS011;60981;50.720;11.342;2023-04-08T00:30:06;7.25;;;4.50;;
44973;SDS011;60981;50.720;11.342;2023-04-08T00:31:08;10.05;;;5.72;;
44973;SDS011;60981;50.720;11.342;2023-04-08T00:32:10;8.50;;;4.80;;
44973;SDS011;60981;50.720;11.342;2023-04-08T00:33:12;10.32;;;5.22;;
44973;SDS011;60981;50.720;11.342;2023-04-08T00:34:14;10.20;;;4.85;;
44973;SDS011;60981;50.720;11.342;2023-04-08T00:35:16;9.45;;;5.50;;
44973;SDS011;60981;50.720;11.342;2023-04-08T00:36:17;9.75;;;4.88;;
44973;SDS011;60981;50.720;11.342;2023-04-08T00:37:19;8.85;;;5.18;;
44973;SDS011;60981;50.720;11.342;2023-04-08T00:38:21;9.45;;;5.15;;
44973;SDS011;60981;50.720;11.342;2023-04-08T00:39:23;8.30;;;5.07;;
44973;SDS011;60981;50.720;11.342;2023-04-08T00:40:25;9.00;;;5.15;;
44973;SDS011;60981;50.720;11.342;2023-04-08T00:41:27;8.65;;;4.78;;
44973;SDS011;60981;50.720;11.342;2023-04-08T00:42:29;8.07;;;4.75;;
44973;SDS011;60981;50.720;11.342;2023-04-08T00:43:31;9.15;;;5.35;;
44973;SDS011;60981;50.720;11.342;2023-04-08T00:44:33;8.77;;;5.45;;
44973;SDS011;60981;50.720;11.342;2023-04-08T00:45:35;9.73;;;5.55;;
44973;SDS011;60981;50.720;11.342;2023-04-08T00:46:37;9.88;;;5.88;;
44973;SDS011;60981;50.720;11.342;2023-04-08T00:47:39;10.30;;;5.45;;
44973;SDS011;60981;50.720;11.342;2023-04-08T00:48:41;10.55;;;7.03;;
44973;SDS011;60981;50.720;11.342;2023-04-08T00:49:43;9.70;;;5.75;;
44973;SDS011;60981;50.720;11.342;2023-04-08T00:50:45;11.00;;;5.80;;
44973;SDS011;60981;50.720;11.342;2023-04-08T00:51:47;8.95;;;5.45;;
44973;SDS011;60981;50.720;11.342;2023-04-08T00:52:49;8.43;;;5.10;;
44973;SDS011;60981;50.720;11.342;2023-04-08T00:53:51;8.63;;;5.50;;
44973;SDS011;60981;50.720;11.342;2023-04-08T00:54:54;9.57;;;5.55;;
44973;SDS011;60981;50.720;11.342;2023-04-08T00:55:56;10.10;;;6.00;;
44973;SDS011;60981;50.720;11.342;2023-04-08T00:56:58;9.60;;;5.70;;
44973;SDS011;60981;50.720;11.342;2023-04-08T00:58:01;10.23;;;5.43;;
44973;SDS011;60981;50.720;11.342;2023-04-08T00:59:03;9.95;;;5.90;;
44973;SDS011;60981;50.720;11.342;2023-04-08T01:00:05;8.23;;;5.10;;
44973;SDS011;60981;50.720;11.342;2023-04-08T01:01:13;9.80;;;5.47;;
44973;SDS011;60981;50.720;11.342;2023-04-08T01:04:39;9.00;;;5.30;;
44973;SDS011;60981;50.720;11.342;2023-04-08T01:07:30;9.98;;;6.20;;
44973;SDS011;60981;50.720;11.342;2023-04-08T01:08:11;9.45;;;5.68;;
44973;SDS011;60981;50.720;11.342;2023-04-08T01:09:14;10.23;;;5.60;;
44973;SDS011;60981;50.720;11.342;2023-04-08T01:10:25;9.77;;;5.90;;
44973;SDS011;60981;50.720;11.342;2023-04-08T01:11:29;9.20;;;5.60;;
44973;SDS011;60981;50.720;11.342;2023-04-08T01:12:34;9.65;;;5.60;;
44973;SDS011;60981;50.720;11.342;2023-04-08T01:13:39;9.40;;;5.45;;
44973;SDS011;60981;50.720;11.342;2023-04-08T01:14:42;9.25;;;5.65;;
44973;SDS011;60981;50.720;11.342;2023-04-08T01:15:45;9.23;;;6.13;;
44973;SDS011;60981;50.720;11.342;2023-04-08T01:16:47;9.10;;;5.60;;
44973;SDS011;60981;50.720;11.342;2023-04-08T01:17:49;8.95;;;5.53;;
44973;SDS011;60981;50.720;11.342;2023-04-08T01:18:53;9.00;;;5.30;;
44973;SDS011;60981;50.720;11.342;2023-04-08T01:19:56;9.73;;;5.82;;
44973;SDS011;60981;50.720;11.342;2023-04-08T01:20:58;9.27;;;5.45;;
44973;SDS011;60981;50.720;11.342;2023-04-08T01:22:02;9.68;;;5.55;;
44973;SDS011;60981;50.720;11.342;2023-04-08T01:23:12;9.23;;;5.25;;
44973;SDS011;60981;50.720;11.342;2023-04-08T01:24:18;10.18;;;5.90;;
44973;SDS011;60981;50.720;11.342;2023-04-08T01:25:22;12.65;;;6.45;;
44973;SDS011;60981;50.720;11.342;2023-04-08T01:26:25;10.52;;;6.13;;
44973;SDS011;60981;50.720;11.342;2023-04-08T01:27:27;9.80;;;6.47;;
44973;SDS011;60981;50.720;11.342;2023-04-08T01:28:31;9.65;;;6.07;;
44973;SDS011;60981;50.720;11.342;2023-04-08T01:29:34;9.73;;;6.03;;
44973;SDS011;60981;50.720;11.342;2023-04-08T01:30:37;8.98;;;5.97;;
44973;SDS011;60981;50.720;11.342;2023-04-08T01:31:39;9.57;;;6.10;;
44973;SDS011;60981;50.720;11.342;2023-04-08T01:32:41;9.73;;;5.97;;
44973;SDS011;60981;50.720;11.342;2023-04-08T01:33:44;10.00;;;6.18;;
44973;SDS011;60981;50.720;11.342;2023-04-08T01:34:47;10.68;;;6.70;;
44973;SDS011;60981;50.720;11.342;2023-04-08T01:35:50;12.23;;;6.25;;
44973;SDS011;60981;50.720;11.342;2023-04-08T01:36:52;10.15;;;6.80;;
44973;SDS011;60981;50.720;11.342;2023-04-08T01:37:56;11.60;;;6.40;;
44973;SDS011;60981;50.720;11.342;2023-04-08T01:38:59;10.80;;;6.95;;
44973;SDS011;60981;50.720;11.342;2023-04-08T01:40:01;13.10;;;7.38;;
44973;SDS011;60981;50.720;11.342;2023-04-08T01:41:04;10.10;;;5.85;;
44973;SDS011;60981;50.720;11.342;2023-04-08T01:42:06;10.00;;;5.97;;
44973;SDS011;60981;50.720;11.342;2023-04-08T01:43:08;9.98;;;6.25;;
44973;SDS011;60981;50.720;11.342;2023-04-08T01:44:11;10.40;;;6.63;;
44973;SDS011;60981;50.720;11.342;2023-04-08T01:45:14;10.65;;;6.63;;
44973;SDS011;60981;50.720;11.342;2023-04-08T01:46:17;9.80;;;5.95;;
44973;SDS011;60981;50.720;11.342;2023-04-08T01:47:19;10.48;;;6.20;;
44973;SDS011;60981;50.720;11.342;2023-04-08T01:48:21;9.70;;;6.50;;
44973;SDS011;60981;50.720;11.342;2023-04-08T01:49:24;10.57;;;6.03;;
44973;SDS011;60981;50.720;11.342;2023-04-08T01:50:26;10.73;;;6.32;;
44973;SDS011;60981;50.720;11.342;2023-04-08T01:51:29;9.18;;;6.03;;
44973;SDS011;60981;50.720;11.342;2023-04-08T01:52:33;10.02;;;5.90;;
44973;SDS011;60981;50.720;11.342;2023-04-08T01:53:36;10.25;;;5.80;;
44973;SDS011;60981;50.720;11.342;2023-04-08T01:54:38;9.90;;;5.73;;
44973;SDS011;60981;50.720;11.342;2023-04-08T01:55:40;8.82;;;5.22;;
44973;SDS011;60981;50.720;11.342;2023-04-08T01:56:42;9.25;;;5.68;;
44973;SDS011;60981;50.720;11.342;2023-04-08T01:57:48;9.27;;;5.93;;
44973;SDS011;60981;50.720;11.342;2023-04-08T01:58:51;9.85;;;5.93;;
44973;SDS011;60981;50.720;11.342;2023-04-08T01:59:55;9.95;;;6.05;;
44973;SDS011;60981;50.720;11.342;2023-04-08T02:00:58;10.43;;;5.80;;
44973;SDS011;60981;50.720;11.342;2023-04-08T02:02:04;9.60;;;5.45;;
44973;SDS011;60981;50.720;11.342;2023-04-08T02:03:07;8.87;;;5.80;;
44973;SDS011;60981;50.720;11.342;2023-04-08T02:04:09;9.55;;;5.60;;
44973;SDS011;60981;50.720;11.342;2023-04-08T02:05:12;10.02;;;5.82;;
44973;SDS011;60981;50.720;11.342;2023-04-08T02:06:14;8.65;;;5.60;;
44973;SDS011;60981;50.720;11.342;2023-04-08T02:07:15;11.25;;;6.20;;
44973;SDS011;60981;50.720;11.342;2023-04-08T02:08:17;9.43;;;5.75;;
44973;SDS011;60981;50.720;11.342;2023-04-08T02:09:19;10.07;;;5.85;;
44973;SDS011;60981;50.720;11.342;2023-04-08T02:10:21;10.15;;;6.40;;
44973;SDS011;60981;50.720;11.342;2023-04-08T02:11:22;10.75;;;6.18;;
44973;SDS011;60981;50.720;11.342;2023-04-08T02:12:26;9.77;;;6.00;;
44973;SDS011;60981;50.720;11.342;2023-04-08T02:13:29;9.75;;;6.10;;
44973;SDS011;60981;50.720;11.342;2023-04-08T02:14:31;9.85;;;6.53;;
44973;SDS011;60981;50.720;11.342;2023-04-08T02:15:33;11.07;;;6.10;;
44973;SDS011;60981;50.720;11.342;2023-04-08T02:16:39;8.85;;;5.72;;
44973;SDS011;60981;50.720;11.342;2023-04-08T02:17:45;9.40;;;5.90;;
44973;SDS011;60981;50.720;11.342;2023-04-08T02:18:55;10.00;;;6.45;;
44973;SDS011;60981;50.720;11.342;2023-04-08T02:19:59;10.02;;;6.18;;
44973;SDS011;60981;50.720;11.342;2023-04-08T02:21:13;10.27;;;5.90;;
44973;SDS011;60981;50.720;11.342;2023-04-08T02:22:17;9.70;;;6.03;;
44973;SDS011;60981;50.720;11.342;2023-04-08T02:23:20;9.88;;;6.07;;
44973;SDS011;60981;50.720;11.342;2023-04-08T02:24:23;9.93;;;5.97;;
44973;SDS011;60981;50.720;11.342;2023-04-08T02:25:25;9.88;;;6.45;;
44973;SDS011;60981;50.720;11.342;2023-04-08T02:26:28;9.82;;;5.35;;
44973;SDS011;60981;50.720;11.342;2023-04-08T02:27:31;8.95;;;5.97;;
44973;SDS011;60981;50.720;11.342;2023-04-08T02:28:34;9.02;;;5.60;;
44973;SDS011;60981;50.720;11.342;2023-04-08T02:29:37;11.05;;;6.47;;
44973;SDS011;60981;50.720;11.342;2023-04-08T02:30:45;9.32;;;5.95;;
44973;SDS011;60981;50.720;11.342;2023-04-08T02:31:47;10.48;;;6.28;;
44973;SDS011;60981;50.720;11.342;2023-04-08T02:32:49;9.73;;;6.13;;
44973;SDS011;60981;50.720;11.342;2023-04-08T02:33:52;9.63;;;6.18;;
44973;SDS011;60981;50.720;11.342;2023-04-08T02:34:55;10.02;;;6.28;;
44973;SDS011;60981;50.720;11.342;2023-04-08T02:35:58;9.98;;;6.18;;
44973;SDS011;60981;50.720;11.342;2023-04-08T02:37:01;10.80;;;6.40;;
44973;SDS011;60981;50.720;11.342;2023-04-08T02:38:03;9.05;;;5.72;;
44973;SDS011;60981;50.720;11.342;2023-04-08T02:39:04;9.93;;;6.10;;
44973;SDS011;60981;50.720;11.342;2023-04-08T02:40:28;10.02;;;6.30;;
44973;SDS011;60981;50.720;11.342;2023-04-08T02:41:29;10.88;;;6.15;;
44973;SDS011;60981;50.720;11.342;2023-04-08T02:42:31;10.80;;;6.10;;
44973;SDS011;60981;50.720;11.342;2023-04-08T02:43:33;10.38;;;6.15;;
44973;SDS011;60981;50.720;11.342;2023-04-08T02:44:34;9.57;;;6.45;;
44973;SDS011;60981;50.720;11.342;2023-04-08T02:45:37;10.23;;;6.10;;
44973;SDS011;60981;50.720;11.342;2023-04-08T02:46:41;10.40;;;5.97;;
44973;SDS011;60981;50.720;11.342;2023-04-08T02:47:43;9.73;;;5.63;;
44973;SDS011;60981;50.720;11.342;2023-04-08T02:48:45;9.30;;;6.00;;
44973;SDS011;60981;50.720;11.342;2023-04-08T02:49:47;11.77;;;6.78;;
44973;SDS011;60981;50.720;11.342;2023-04-08T02:50:49;9.93;;;5.97;;
44973;SDS011;60981;50.720;11.342;2023-04-08T02:51:50;9.60;;;6.22;;
44973;SDS011;60981;50.720;11.342;2023-04-08T02:52:52;10.30;;;6.50;;
44973;SDS011;60981;50.720;11.342;2023-04-08T02:53:54;9.05;;;6.35;;
44973;SDS011;60981;50.720;11.342;2023-04-08T02:54:56;8.63;;;5.95;;
44973;SDS011;60981;50.720;11.342;2023-04-08T02:55:57;10.40;;;6.30;;
44973;SDS011;60981;50.720;11.342;2023-04-08T02:56:59;9.38;;;6.30;;
44973;SDS011;60981;50.720;11.342;2023-04-08T02:58:01;9.75;;;6.80;;
44973;SDS011;60981;50.720;11.342;2023-04-08T02:59:03;11.32;;;6.32;;
44973;SDS011;60981;50.720;11.342;2023-04-08T03:00:05;10.57;;;6.68;;
44973;SDS011;60981;50.720;11.342;2023-04-08T03:01:07;11.15;;;6.57;;
44973;SDS011;60981;50.720;11.342;2023-04-08T03:02:09;11.25;;;6.97;;
44973;SDS011;60981;50.720;11.342;2023-04-08T03:03:12;10.27;;;6.43;;
44973;SDS011;60981;50.720;11.342;2023-04-08T03:04:13;9.65;;;6.53;;
44973;SDS011;60981;50.720;11.342;2023-04-08T03:05:15;10.80;;;6.22;;
44973;SDS011;60981;50.720;11.342;2023-04-08T03:06:17;10.55;;;6.20;;
44973;SDS011;60981;50.720;11.342;2023-04-08T03:07:19;9.87;;;6.07;;
44973;SDS011;60981;50.720;11.342;2023-04-08T03:08:21;11.05;;;6.50;;
44973;SDS011;60981;50.720;11.342;2023-04-08T03:09:23;10.65;;;6.38;;
44973;SDS011;60981;50.720;11.342;2023-04-08T03:10:25;10.40;;;6.78;;
44973;SDS011;60981;50.720;11.342;2023-04-08T03:11:27;10.05;;;6.28;;
44973;SDS011;60981;50.720;11.342;2023-04-08T03:12:28;11.13;;;6.53;;
44973;SDS011;60981;50.720;11.342;2023-04-08T03:13:31;11.18;;;6.78;;
44973;SDS011;60981;50.720;11.342;2023-04-08T03:14:34;10.48;;;6.80;;
44973;SDS011;60981;50.720;11.342;2023-04-08T03:15:36;12.23;;;7.03;;
44973;SDS011;60981;50.720;11.342;2023-04-08T03:16:38;10.20;;;6.22;;
44973;SDS011;60981;50.720;11.342;2023-04-08T03:17:39;10.10;;;6.68;;
44973;SDS011;60981;50.720;11.342;2023-04-08T03:18:41;10.63;;;6.63;;
44973;SDS011;60981;50.720;11.342;2023-04-08T03:19:43;10.77;;;6.60;;
44973;SDS011;60981;50.720;11.342;2023-04-08T03:20:45;12.23;;;6.72;;
44973;SDS011;60981;50.720;11.342;2023-04-08T03:21:47;9.98;;;6.50;;
44973;SDS011;60981;50.720;11.342;2023-04-08T03:22:49;8.77;;;5.95;;
44973;SDS011;60981;50.720;11.342;2023-04-08T03:23:50;10.48;;;6.78;;
44973;SDS011;60981;50.720;11.342;2023-04-08T03:24:52;10.30;;;6.60;;
44973;SDS011;60981;50.720;11.342;2023-04-08T03:25:54;9.13;;;6.38;;
44973;SDS011;60981;50.720;11.342;2023-04-08T03:26:56;10.57;;;6.57;;
44973;SDS011;60981;50.720;11.342;2023-04-08T03:27:58;10.55;;;6.32;;
44973;SDS011;60981;50.720;11.342;2023-04-08T03:29:00;9.32;;;6.00;;
44973;SDS011;60981;50.720;11.342;2023-04-08T03:30:02;10.75;;;6.72;;
44973;SDS011;60981;50.720;11.342;2023-04-08T03:31:04;9.63;;;6.50;;
44973;SDS011;60981;50.720;11.342;2023-04-08T03:32:06;9.57;;;6.28;;
44973;SDS011;60981;50.720;11.342;2023-04-08T03:33:08;10.20;;;6.38;;
44973;SDS011;60981;50.720;11.342;2023-04-08T03:34:10;10.18;;;6.32;;
44973;SDS011;60981;50.720;11.342;2023-04-08T03:35:11;10.32;;;6.55;;
44973;SDS011;60981;50.720;11.342;2023-04-08T03:36:13;10.63;;;6.45;;
44973;SDS011;60981;50.720;11.342;2023-04-08T03:37:15;9.27;;;6.22;;
44973;SDS011;60981;50.720;11.342;2023-04-08T03:38:17;10.70;;;6.60;;
44973;SDS011;60981;50.720;11.342;2023-04-08T03:39:19;11.32;;;6.65;;
44973;SDS011;60981;50.720;11.342;2023-04-08T03:40:21;9.53;;;6.20;;
44973;SDS011;60981;50.720;11.342;2023-04-08T03:41:23;10.23;;;6.65;;
44973;SDS011;60981;50.720;11.342;2023-04-08T03:42:25;9.73;;;6.53;;
44973;SDS011;60981;50.720;11.342;2023-04-08T03:43:26;9.85;;;6.47;;
44973;SDS011;60981;50.720;11.342;2023-04-08T03:44:28;9.20;;;6.07;;
44973;SDS011;60981;50.720;11.342;2023-04-08T03:45:30;9.95;;;6.10;;
44973;SDS011;60981;50.720;11.342;2023-04-08T03:46:32;9.73;;;6.03;;
44973;SDS011;60981;50.720;11.342;2023-04-08T03:47:33;10.05;;;6.13;;
44973;SDS011;60981;50.720;11.342;2023-04-08T03:48:35;10.68;;;6.63;;
44973;SDS011;60981;50.720;11.342;2023-04-08T03:49:37;9.55;;;6.10;;
44973;SDS011;60981;50.720;11.342;2023-04-08T03:50:39;9.23;;;6.28;;
44973;SDS011;60981;50.720;11.342;2023-04-08T03:51:41;9.80;;;6.20;;
44973;SDS011;60981;50.720;11.342;2023-04-08T03:52:42;8.98;;;6.07;;
44973;SDS011;60981;50.720;11.342;2023-04-08T03:53:44;9.10;;;5.57;;
44973;SDS011;60981;50.720;11.342;2023-04-08T03:54:46;8.65;;;5.22;;
44973;SDS011;60981;50.720;11.342;2023-04-08T03:55:48;8.07;;;4.85;;
44973;SDS011;60981;50.720;11.342;2023-04-08T03:56:51;8.25;;;5.00;;
44973;SDS011;60981;50.720;11.342;2023-04-08T03:57:53;10.93;;;4.97;;
44973;SDS011;60981;50.720;11.342;2023-04-08T03:58:54;7.45;;;4.68;;
44973;SDS011;60981;50.720;11.342;2023-04-08T03:59:56;9.00;;;5.18;;
44973;SDS011;60981;50.720;11.342;2023-04-08T04:00:58;9.43;;;5.57;;
44973;SDS011;60981;50.720;11.342;2023-04-08T04:02:00;8.55;;;5.43;;
44973;SDS011;60981;50.720;11.342;2023-04-08T04:03:02;8.95;;;5.53;;
44973;SDS011;60981;50.720;11.342;2023-04-08T04:04:04;9.15;;;5.65;;
44973;SDS011;60981;50.720;11.342;2023-04-08T04:05:06;7.55;;;4.88;;
44973;SDS011;60981;50.720;11.342;2023-04-08T04:06:08;9.60;;;5.45;;
44973;SDS011;60981;50.720;11.342;2023-04-08T04:07:10;9.70;;;5.70;;
44973;SDS011;60981;50.720;11.342;2023-04-08T04:08:12;9.77;;;5.97;;
44973;SDS011;60981;50.720;11.342;2023-04-08T04:09:14;8.63;;;5.43;;
44973;SDS011;60981;50.720;11.342;2023-04-08T04:10:17;10.55;;;6.50;;
44973;SDS011;60981;50.720;11.342;2023-04-08T04:11:19;10.50;;;5.82;;
44973;SDS011;60981;50.720;11.342;2023-04-08T04:12:22;9.60;;;6.13;;
44973;SDS011;60981;50.720;11.342;2023-04-08T04:13:24;10.00;;;5.93;;
44973;SDS011;60981;50.720;11.342;2023-04-08T04:14:26;10.07;;;6.10;;
44973;SDS011;60981;50.720;11.342;2023-04-08T04:15:28;12.02;;;6.35;;
44973;SDS011;60981;50.720;11.342;2023-04-08T04:16:30;13.57;;;6.70;;
44973;SDS011;60981;50.720;11.342;2023-04-08T04:17:33;9.82;;;5.60;;
44973;SDS011;60981;50.720;11.342;2023-04-08T04:18:35;10.30;;;5.93;;
44973;SDS011;60981;50.720;11.342;2023-04-08T04:19:37;10.38;;;6.43;;
44973;SDS011;60981;50.720;11.342;2023-04-08T04:20:39;9.82;;;5.88;;
44973;SDS011;60981;50.720;11.342;2023-04-08T04:21:42;9.98;;;5.35;;
44973;SDS011;60981;50.720;11.342;2023-04-08T04:22:43;10.10;;;5.03;;
44973;SDS011;60981;50.720;11.342;2023-04-08T04:23:45;10.27;;;5.90;;
44973;SDS011;60981;50.720;11.342;2023-04-08T04:24:47;10.75;;;5.75;;
44973;SDS011;60981;50.720;11.342;2023-04-08T04:25:49;9.07;;;5.18;;
44973;SDS011;60981;50.720;11.342;2023-04-08T04:26:50;9.02;;;5.47;;
44973;SDS011;60981;50.720;11.342;2023-04-08T04:27:52;10.45;;;5.60;;
44973;SDS011;60981;50.720;11.342;2023-04-08T04:28:54;9.60;;;5.20;;
44973;SDS011;60981;50.720;11.342;2023-04-08T04:29:56;8.50;;;5.30;;
44973;SDS011;60981;50.720;11.342;2023-04-08T04:30:57;9.73;;;4.95;;
44973;SDS011;60981;50.720;11.342;2023-04-08T04:31:59;8.88;;;5.25;;
44973;SDS011;60981;50.720;11.342;2023-04-08T04:33:01;8.30;;;4.88;;
44973;SDS011;60981;50.720;11.342;2023-04-08T04:34:02;8.95;;;4.93;;
44973;SDS011;60981;50.720;11.342;2023-04-08T04:35:04;10.20;;;5.40;;
44973;SDS011;60981;50.720;11.342;2023-04-08T04:36:05;8.18;;;5.00;;
44973;SDS011;60981;50.720;11.342;2023-04-08T04:37:08;11.43;;;5.68;;
44973;SDS011;60981;50.720;11.342;2023-04-08T04:38:09;11.13;;;5.22;;
44973;SDS011;60981;50.720;11.342;2023-04-08T04:39:13;10.23;;;5.82;;
44973;SDS011;60981;50.720;11.342;2023-04-08T04:40:14;9.55;;;5.70;;
44973;SDS011;60981;50.720;11.342;2023-04-08T04:41:16;9.13;;;5.53;;
44973;SDS011;60981;50.720;11.342;2023-04-08T04:42:18;8.80;;;5.38;;
44973;SDS011;60981;50.720;11.342;2023-04-08T04:43:19;9.05;;;5.43;;
44973;SDS011;60981;50.720;11.342;2023-04-08T04:44:21;10.05;;;5.82;;
44973;SDS011;60981;50.720;11.342;2023-04-08T04:45:22;9.07;;;5.15;;
44973;SDS011;60981;50.720;11.342;2023-04-08T04:46:24;10.40;;;4.97;;
44973;SDS011;60981;50.720;11.342;2023-04-08T04:47:26;8.68;;;4.30;;
44973;SDS011;60981;50.720;11.342;2023-04-08T04:48:28;8.88;;;4.75;;
44973;SDS011;60981;50.720;11.342;2023-04-08T04:49:30;8.77;;;5.15;;
44973;SDS011;60981;50.720;11.342;2023-04-08T04:50:31;8.60;;;5.07;;
44973;SDS011;60981;50.720;11.342;2023-04-08T04:51:33;9.25;;;5.47;;
44973;SDS011;60981;50.720;11.342;2023-04-08T04:52:35;8.48;;;4.85;;
44973;SDS011;60981;50.720;11.342;2023-04-08T04:53:36;8.13;;;5.10;;
44973;SDS011;60981;50.720;11.342;2023-04-08T04:54:38;8.85;;;5.03;;
44973;SDS011;60981;50.720;11.342;2023-04-08T04:55:40;7.30;;;4.85;;
44973;SDS011;60981;50.720;11.342;2023-04-08T04:56:42;8.23;;;5.05;;
44973;SDS011;60981;50.720;11.342;2023-04-08T04:57:43;7.57;;;4.90;;
44973;SDS011;60981;50.720;11.342;2023-04-08T04:58:45;8.32;;;4.90;;
44973;SDS011;60981;50.720;11.342;2023-04-08T04:59:47;7.85;;;4.93;;
44973;SDS011;60981;50.720;11.342;2023-04-08T05:00:48;7.80;;;5.22;;
44973;SDS011;60981;50.720;11.342;2023-04-08T05:01:50;9.25;;;5.13;;
44973;SDS011;60981;50.720;11.342;2023-04-08T05:02:52;7.03;;;4.97;;
44973;SDS011;60981;50.720;11.342;2023-04-08T05:03:54;9.38;;;4.97;;
44973;SDS011;60981;50.720;11.342;2023-04-08T05:04:55;7.28;;;3.85;;
44973;SDS011;60981;50.720;11.342;2023-04-08T05:05:57;9.48;;;5.57;;
44973;SDS011;60981;50.720;11.342;2023-04-08T05:06:59;7.60;;;4.20;;
44973;SDS011;60981;50.720;11.342;2023-04-08T05:08:00;7.40;;;3.92;;
44973;SDS011;60981;50.720;11.342;2023-04-08T05:09:02;7.50;;;4.00;;
44973;SDS011;60981;50.720;11.342;2023-04-08T05:10:04;7.22;;;4.15;;
44973;SDS011;60981;50.720;11.342;2023-04-08T05:11:09;6.68;;;4.03;;
44973;SDS011;60981;50.720;11.342;2023-04-08T05:12:11;6.80;;;3.83;;
44973;SDS011;60981;50.720;11.342;2023-04-08T05:13:13;8.82;;;4.55;;
44973;SDS011;60981;50.720;11.342;2023-04-08T05:14:14;7.85;;;4.45;;
44973;SDS011;60981;50.720;11.342;2023-04-08T05:15:16;7.80;;;4.75;;
44973;SDS011;60981;50.720;11.342;2023-04-08T05:16:17;7.97;;;5.10;;
44973;SDS011;60981;50.720;11.342;2023-04-08T05:17:19;7.53;;;4.53;;
44973;SDS011;60981;50.720;11.342;2023-04-08T05:18:21;9.40;;;5.28;;
44973;SDS011;60981;50.720;11.342;2023-04-08T05:19:22;9.50;;;5.47;;
44973;SDS011;60981;50.720;11.342;2023-04-08T05:20:24;8.35;;;5.55;;
44973;SDS011;60981;50.720;11.342;2023-04-08T05:21:26;8.68;;;4.97;;
44973;SDS011;60981;50.720;11.342;2023-04-08T05:22:28;9.57;;;5.63;;
44973;SDS011;60981;50.720;11.342;2023-04-08T05:23:29;9.13;;;5.40;;
44973;SDS011;60981;50.720;11.342;2023-04-08T05:24:31;10.73;;;5.15;;
44973;SDS011;60981;50.720;11.342;2023-04-08T05:25:33;9.25;;;5.18;;
44973;SDS011;60981;50.720;11.342;2023-04-08T05:26:35;9.23;;;5.15;;
44973;SDS011;60981;50.720;11.342;2023-04-08T05:27:37;9.45;;;5.47;;
44973;SDS011;60981;50.720;11.342;2023-04-08T05:28:40;11.18;;;6.05;;
44973;SDS011;60981;50.720;11.342;2023-04-08T05:29:42;8.85;;;5.15;;
44973;SDS011;60981;50.720;11.342;2023-04-08T05:30:50;8.85;;;4.60;;
44973;SDS011;60981;50.720;11.342;2023-04-08T05:31:52;9.15;;;4.53;;
44973;SDS011;60981;50.720;11.342;2023-04-08T05:32:54;8.23;;;4.85;;
44973;SDS011;60981;50.720;11.342;2023-04-08T05:33:59;9.05;;;4.90;;
44973;SDS011;60981;50.720;11.342;2023-04-08T05:35:02;8.55;;;4.82;;
44973;SDS011;60981;50.720;11.342;2023-04-08T05:36:03;8.60;;;5.10;;
44973;SDS011;60981;50.720;11.342;2023-04-08T05:37:05;9.80;;;5.03;;
44973;SDS011;60981;50.720;11.342;2023-04-08T05:38:06;9.32;;;4.63;;
44973;SDS011;60981;50.720;11.342;2023-04-08T05:39:08;7.95;;;5.30;;
44973;SDS011;60981;50.720;11.342;2023-04-08T05:40:10;9.18;;;5.97;;
44973;SDS011;60981;50.720;11.342;2023-04-08T05:41:11;10.82;;;6.85;;
44973;SDS011;60981;50.720;11.342;2023-04-08T05:42:13;9.32;;;6.32;;
44973;SDS011;60981;50.720;11.342;2023-04-08T05:43:15;7.80;;;5.20;;
44973;SDS011;60981;50.720;11.342;2023-04-08T05:44:16;9.10;;;5.93;;
44973;SDS011;60981;50.720;11.342;2023-04-08T07:08:46;3.75;;;1.52;;
44973;SDS011;60981;50.720;11.342;2023-04-08T07:09:47;3.17;;;1.27;;
44973;SDS011;60981;50.720;11.342;2023-04-08T07:10:50;4.70;;;1.92;;
44973;SDS011;60981;50.720;11.342;2023-04-08T07:11:52;8.50;;;4.32;;
44973;SDS011;60981;50.720;11.342;2023-04-08T07:12:54;6.53;;;3.13;;
44973;SDS011;60981;50.720;11.342;2023-04-08T07:13:55;7.40;;;3.50;;
44973;SDS011;60981;50.720;11.342;2023-04-08T07:14:57;5.43;;;2.72;;
44973;SDS011;60981;50.720;11.342;2023-04-08T07:15:59;7.13;;;3.78;;
44973;SDS011;60981;50.720;11.342;2023-04-08T07:17:00;3.80;;;1.40;;
44973;SDS011;60981;50.720;11.342;2023-04-08T07:18:02;4.13;;;1.70;;
44973;SDS011;60981;50.720;11.342;2023-04-08T07:19:05;6.18;;;3.80;;
44973;SDS011;60981;50.720;11.342;2023-04-08T07:20:07;5.15;;;2.30;;
44973;SDS011;60981;50.720;11.342;2023-04-08T07:21:08;3.50;;;1.05;;
44973;SDS011;60981;50.720;11.342;2023-04-08T07:22:11;3.20;;;1.35;;
44973;SDS011;60981;50.720;11.342;2023-04-08T07:23:12;3.53;;;1.20;;
44973;SDS011;60981;50.720;11.342;2023-04-08T07:24:14;3.10;;;1.20;;
44973;SDS011;60981;50.720;11.342;2023-04-08T07:25:16;4.38;;;1.50;;
44973;SDS011;60981;50.720;11.342;2023-04-08T07:26:18;4.85;;;3.30;;
44973;SDS011;60981;50.720;11.342;2023-04-08T07:27:19;5.35;;;2.50;;
44973;SDS011;60981;50.720;11.342;2023-04-08T07:28:21;4.80;;;2.30;;
44973;SDS011;60981;50.720;11.342;2023-04-08T07:29:23;4.88;;;2.22;;
44973;SDS011;60981;50.720;11.342;2023-04-08T07:30:25;4.32;;;1.90;;
44973;SDS011;60981;50.720;11.342;2023-04-08T07:31:26;4.13;;;1.80;;
44973;SDS011;60981;50.720;11.342;2023-04-08T07:32:28;3.83;;;2.00;;
44973;SDS011;60981;50.720;11.342;2023-04-08T07:33:30;4.10;;;1.70;;
44973;SDS011;60981;50.720;11.342;2023-04-08T07:34:33;4.20;;;2.05;;
44973;SDS011;60981;50.720;11.342;2023-04-08T07:35:34;4.30;;;1.70;;
44973;SDS011;60981;50.720;11.342;2023-04-08T07:36:36;3.45;;;1.90;;
44973;SDS011;60981;50.720;11.342;2023-04-08T07:37:38;3.72;;;1.60;;
44973;SDS011;60981;50.720;11.342;2023-04-08T07:38:40;5.43;;;2.03;;
44973;SDS011;60981;50.720;11.342;2023-04-08T07:39:42;3.90;;;1.58;;
44973;SDS011;60981;50.720;11.342;2023-04-08T07:40:43;3.50;;;1.77;;
44973;SDS011;60981;50.720;11.342;2023-04-08T07:41:45;3.10;;;1.10;;
44973;SDS011;60981;50.720;11.342;2023-04-08T07:42:47;3.83;;;1.50;;
44973;SDS011;60981;50.720;11.342;2023-04-08T07:43:48;4.30;;;1.80;;
44973;SDS011;60981;50.720;11.342;2023-04-08T07:44:50;4.30;;;1.30;;
44973;SDS011;60981;50.720;11.342;2023-04-08T07:45:52;3.70;;;1.80;;
44973;SDS011;60981;50.720;11.342;2023-04-08T07:46:54;5.18;;;1.95;;
44973;SDS011;60981;50.720;11.342;2023-04-08T07:47:56;4.03;;;1.73;;
44973;SDS011;60981;50.720;11.342;2023-04-08T07:48:57;3.25;;;1.23;;
44973;SDS011;60981;50.720;11.342;2023-04-08T07:49:59;4.03;;;2.03;;
44973;SDS011;60981;50.720;11.342;2023-04-08T07:51:02;4.90;;;1.95;;
44973;SDS011;60981;50.720;11.342;2023-04-08T07:52:11;3.83;;;1.55;;
44973;SDS011;60981;50.720;11.342;2023-04-08T07:53:12;4.18;;;1.48;;
44973;SDS011;60981;50.720;11.342;2023-04-08T07:54:14;5.63;;;2.67;;
44973;SDS011;60981;50.720;11.342;2023-04-08T07:55:17;6.22;;;3.00;;
44973;SDS011;60981;50.720;11.342;2023-04-08T07:56:19;4.55;;;1.63;;
44973;SDS011;60981;50.720;11.342;2023-04-08T07:57:22;8.48;;;4.75;;
44973;SDS011;60981;50.720;11.342;2023-04-08T07:58:24;4.75;;;1.80;;
44973;SDS011;60981;50.720;11.342;2023-04-08T07:59:27;5.10;;;1.70;;
44973;SDS011;60981;50.720;11.342;2023-04-08T08:00:29;5.13;;;2.20;;
44973;SDS011;60981;50.720;11.342;2023-04-08T08:01:31;4.95;;;1.60;;